createdAt,value
2017-12-16T00:02:01.333Z,5.63
2017-12-16T00:04:29.692Z,6.50
2017-12-16T00:06:57.257Z,6.10
2017-12-16T00:09:24.837Z,7.20
2017-12-16T00:11:52.394Z,7.72
2017-12-16T00:14:20.749Z,8.60
2017-12-16T00:16:48.279Z,7.93
2017-12-16T00:19:16.496Z,7.53
2017-12-16T00:21:44.044Z,6.23
2017-12-16T00:24:11.579Z,6.63
2017-12-16T00:26:39.208Z,6.40
2017-12-16T00:29:06.778Z,6.30
2017-12-16T00:31:34.316Z,6.80
2017-12-16T00:34:02.095Z,6.30
2017-12-16T00:36:29.674Z,5.73
2017-12-16T00:38:57.204Z,6.00
2017-12-16T00:41:25.241Z,5.93
2017-12-16T00:43:53.553Z,6.13
2017-12-16T00:46:21.080Z,4.93
2017-12-16T00:48:48.779Z,6.63
2017-12-16T00:51:16.472Z,6.10
2017-12-16T00:53:44.009Z,6.87
2017-12-16T00:56:11.576Z,5.10
2017-12-16T00:58:39.104Z,6.73
2017-12-16T01:01:06.852Z,5.40
2017-12-16T01:03:34.432Z,5.70
2017-12-16T01:06:02.457Z,6.20
2017-12-16T01:08:29.992Z,6.00
2017-12-16T01:10:57.543Z,5.20
2017-12-16T01:13:25.084Z,5.40
2017-12-16T01:15:52.616Z,5.70
2017-12-16T01:18:20.331Z,5.95
2017-12-16T01:20:47.851Z,5.53
2017-12-16T01:23:16.459Z,5.27
2017-12-16T01:25:44.120Z,5.30
2017-12-16T01:28:11.649Z,6.70
2017-12-16T01:30:39.176Z,4.90
2017-12-16T01:33:06.729Z,5.30
2017-12-16T01:35:46.242Z,5.97
2017-12-16T01:38:27.316Z,5.28
2017-12-16T01:40:54.855Z,5.97
2017-12-16T01:43:22.566Z,6.00
2017-12-16T01:45:50.156Z,6.37
2017-12-16T01:48:17.691Z,6.87
2017-12-16T01:50:45.222Z,6.17
2017-12-16T01:53:13.687Z,6.70
2017-12-16T01:55:41.215Z,6.40
2017-12-16T01:58:08.748Z,5.83
2017-12-16T02:00:36.304Z,6.10
2017-12-16T02:03:03.840Z,5.90
2017-12-16T02:05:31.364Z,5.80
2017-12-16T02:07:58.946Z,5.60
2017-12-16T02:10:26.467Z,5.90
2017-12-16T02:12:54.004Z,6.10
2017-12-16T02:15:22.330Z,6.40
2017-12-16T02:17:49.863Z,6.63
2017-12-16T02:20:17.394Z,6.18
2017-12-16T02:22:45.711Z,6.50
2017-12-16T02:25:13.704Z,6.55
2017-12-16T02:32:16.455Z,5.75
2017-12-16T02:34:44.742Z,5.50
2017-12-16T02:37:13.969Z,5.40
2017-12-16T02:39:41.516Z,5.70
2017-12-16T02:42:09.048Z,5.37
2017-12-16T02:44:36.923Z,5.33
2017-12-16T02:47:04.572Z,4.87
2017-12-16T02:58:06.095Z,6.80
2017-12-16T03:00:33.648Z,6.53
2017-12-16T03:03:01.999Z,6.37
2017-12-16T03:05:29.532Z,6.28
2017-12-16T03:07:57.055Z,6.23
2017-12-16T03:10:24.607Z,5.37
2017-12-16T03:12:52.143Z,5.40
2017-12-16T03:15:20.431Z,4.95
2017-12-16T03:17:48.775Z,5.73
2017-12-16T03:20:16.421Z,5.35
2017-12-16T03:22:43.954Z,5.17
2017-12-16T03:25:11.513Z,5.25
2017-12-16T03:27:39.034Z,5.03
2017-12-16T03:30:06.564Z,5.25
2017-12-16T03:32:34.123Z,5.07
2017-12-16T03:35:01.648Z,5.87
2017-12-16T03:37:29.335Z,5.80
2017-12-16T03:39:56.984Z,5.57
2017-12-16T03:42:24.532Z,5.20
2017-12-16T03:44:52.463Z,5.60
2017-12-16T03:47:20.024Z,5.25
2017-12-16T03:49:48.315Z,5.40
2017-12-16T03:52:16.436Z,5.30
2017-12-16T03:54:43.988Z,4.97
2017-12-16T03:57:11.520Z,4.40
2017-12-16T03:59:39.047Z,4.93
2017-12-16T04:02:06.634Z,5.70
2017-12-16T04:04:34.167Z,6.30
2017-12-16T04:07:01.695Z,6.57
2017-12-16T04:09:29.243Z,5.77
2017-12-16T04:11:56.764Z,5.67
2017-12-16T04:14:24.295Z,6.73
2017-12-16T04:16:51.875Z,5.13
2017-12-16T04:19:19.403Z,5.40
2017-12-16T04:21:47.691Z,5.70
2017-12-16T04:24:16.527Z,5.65
2017-12-16T04:26:44.052Z,5.40
2017-12-16T04:29:11.583Z,5.90
2017-12-16T04:31:39.137Z,6.47
2017-12-16T04:34:06.661Z,5.00
2017-12-16T04:36:34.187Z,5.27
2017-12-16T04:39:01.748Z,4.80
2017-12-16T04:41:29.275Z,4.97
2017-12-16T04:43:56.802Z,5.27
2017-12-16T04:46:24.667Z,4.83
2017-12-16T04:48:52.192Z,5.90
2017-12-16T04:51:19.716Z,5.03
2017-12-16T04:53:47.275Z,6.50
2017-12-16T04:56:15.449Z,4.80
2017-12-16T04:58:43.747Z,5.00
2017-12-16T05:01:11.303Z,4.97
2017-12-16T05:03:38.844Z,5.50
2017-12-16T05:06:07.789Z,4.80
2017-12-16T05:08:36.156Z,4.97
2017-12-16T05:11:03.683Z,4.67
2017-12-16T05:13:31.988Z,4.40
2017-12-16T05:15:59.540Z,4.70
2017-12-16T05:18:27.059Z,4.10
2017-12-16T05:20:55.359Z,4.13
2017-12-16T05:23:22.955Z,4.23
2017-12-16T05:25:50.614Z,4.22
2017-12-16T05:28:18.144Z,5.30
2017-12-16T05:30:45.732Z,4.93
2017-12-16T05:33:15.633Z,6.03
2017-12-16T05:35:43.156Z,6.40
2017-12-16T05:38:11.475Z,6.40
2017-12-16T05:40:39.004Z,5.30
2017-12-16T05:43:06.532Z,5.30
2017-12-16T05:45:34.081Z,5.23
2017-12-16T05:48:02.419Z,4.90
2017-12-16T05:50:29.939Z,5.30
2017-12-16T05:52:58.329Z,5.57
2017-12-16T05:55:25.851Z,6.80
2017-12-16T05:57:53.391Z,7.60
2017-12-16T06:00:21.104Z,7.30
2017-12-16T06:02:48.929Z,7.83
2017-12-16T06:05:16.586Z,10.80
2017-12-16T06:07:44.143Z,12.73
2017-12-16T06:10:11.677Z,8.90
2017-12-16T06:12:39.377Z,8.80
2017-12-16T06:15:07.307Z,18.80
2017-12-16T06:17:34.969Z,13.20
2017-12-16T06:20:02.555Z,14.80
2017-12-16T06:22:30.135Z,11.60
2017-12-16T06:24:57.731Z,11.90
2017-12-16T06:27:25.559Z,18.80
2017-12-16T06:29:53.120Z,16.27
2017-12-16T06:32:20.647Z,22.83
2017-12-16T06:34:48.355Z,10.50
2017-12-16T06:37:16.582Z,5.62
2017-12-16T06:39:44.303Z,5.37
2017-12-16T06:42:11.864Z,5.30
2017-12-16T06:44:39.420Z,8.07
2017-12-16T06:47:07.043Z,7.30
2017-12-16T06:49:34.974Z,5.97
2017-12-16T06:52:02.558Z,6.50
2017-12-16T06:54:30.706Z,6.90
2017-12-16T06:56:58.548Z,6.50
2017-12-16T06:59:26.189Z,6.20
2017-12-16T07:01:53.712Z,6.20
2017-12-16T07:04:21.507Z,6.93
2017-12-16T07:06:49.239Z,8.03
2017-12-16T07:09:17.085Z,8.10
2017-12-16T07:11:44.644Z,7.30
2017-12-16T07:14:12.215Z,7.10
2017-12-16T07:16:39.754Z,7.57
2017-12-16T07:19:07.304Z,6.63
2017-12-16T07:21:34.908Z,7.70
2017-12-16T07:24:02.436Z,7.13
2017-12-16T07:26:29.967Z,6.80
2017-12-16T07:28:57.528Z,6.50
2017-12-16T07:31:25.933Z,6.40
2017-12-16T07:33:53.470Z,7.22
2017-12-16T07:36:21.015Z,6.22
2017-12-16T07:38:48.540Z,7.87
2017-12-16T07:41:16.391Z,6.53
2017-12-16T07:43:44.063Z,6.80
2017-12-16T07:46:11.599Z,5.80
2017-12-16T07:48:39.121Z,7.43
2017-12-16T07:51:06.816Z,25.00
2017-12-16T07:53:34.343Z,7.13
2017-12-16T07:56:02.643Z,6.50
2017-12-16T07:58:30.191Z,5.90
2017-12-16T08:00:57.720Z,6.40
2017-12-16T08:06:00.052Z,7.10
2017-12-16T08:08:27.592Z,6.37
2017-12-16T08:10:55.124Z,6.57
2017-12-16T08:13:23.447Z,6.70
2017-12-16T08:15:51.015Z,8.50
2017-12-16T08:18:18.551Z,6.97
2017-12-16T08:20:46.124Z,7.20
2017-12-16T08:23:25.869Z,6.77
2017-12-16T08:32:18.464Z,7.07
2017-12-16T08:34:46.791Z,9.03
2017-12-16T08:37:15.479Z,9.00
2017-12-16T08:39:43.999Z,8.00
2017-12-16T08:42:11.531Z,7.15
2017-12-16T08:44:39.071Z,6.50
2017-12-16T08:47:07.438Z,8.38
2017-12-16T08:49:35.743Z,6.83
2017-12-16T08:52:03.388Z,7.10
2017-12-16T08:54:31.829Z,7.10
2017-12-16T08:56:59.570Z,7.90
2017-12-16T08:59:28.182Z,8.10
2017-12-16T09:01:55.839Z,8.67
2017-12-16T09:04:23.389Z,8.93
2017-12-16T09:06:50.984Z,8.17
2017-12-16T09:09:18.550Z,8.05
2017-12-16T09:11:46.871Z,8.43
2017-12-16T09:14:15.476Z,9.45
2017-12-16T09:16:43.827Z,9.47
2017-12-16T09:19:11.363Z,8.70
2017-12-16T09:21:38.903Z,9.27
2017-12-16T09:24:07.259Z,9.48
2017-12-16T09:26:34.792Z,10.63
2017-12-16T09:29:02.639Z,9.18
2017-12-16T09:31:30.229Z,9.50
2017-12-16T09:33:57.758Z,9.40
2017-12-16T09:36:25.402Z,9.60
2017-12-16T09:38:53.003Z,9.37
2017-12-16T09:41:20.547Z,8.92
2017-12-16T09:43:48.102Z,11.63
2017-12-16T09:46:17.289Z,9.37
2017-12-16T09:48:45.556Z,10.97
2017-12-16T09:51:24.659Z,11.12
2017-12-16T10:03:33.296Z,12.10
2017-12-16T10:06:00.852Z,9.80
2017-12-16T10:08:28.389Z,11.30
2017-12-16T10:10:56.118Z,12.20
2017-12-16T10:13:23.697Z,11.77
2017-12-16T10:15:51.235Z,12.70
2017-12-16T10:18:19.572Z,12.20
2017-12-16T10:20:47.115Z,12.07
2017-12-16T10:23:16.408Z,12.20
2017-12-16T10:25:43.988Z,12.00
2017-12-16T10:28:11.538Z,11.50
2017-12-16T10:30:39.081Z,11.07
2017-12-16T10:33:06.646Z,12.17
2017-12-16T10:35:34.203Z,12.27
2017-12-16T10:38:01.740Z,11.73
2017-12-16T10:40:29.320Z,12.98
2017-12-16T10:42:56.859Z,12.60
2017-12-16T10:45:24.433Z,12.50
2017-12-16T10:47:52.019Z,14.23
2017-12-16T10:50:19.586Z,13.18
2017-12-16T10:52:47.119Z,14.07
2017-12-16T10:55:16.544Z,13.50
2017-12-16T10:57:44.075Z,15.57
2017-12-16T11:00:11.683Z,15.10
2017-12-16T11:02:39.253Z,13.93
2017-12-16T11:05:07.061Z,15.20
2017-12-16T11:07:34.600Z,15.93
2017-12-16T11:10:02.188Z,14.07
2017-12-16T11:12:29.760Z,13.47
2017-12-16T11:14:57.300Z,12.90
2017-12-16T11:17:24.964Z,13.15
2017-12-16T11:19:52.508Z,15.05
2017-12-16T11:22:20.055Z,14.43
2017-12-16T11:24:47.635Z,14.37
2017-12-16T11:27:16.312Z,14.05
2017-12-16T11:29:43.845Z,12.70
2017-12-16T11:32:12.244Z,13.17
2017-12-16T11:34:39.820Z,13.13
2017-12-16T11:37:07.425Z,12.60
2017-12-16T11:39:34.987Z,12.37
2017-12-16T11:42:02.580Z,12.23
2017-12-16T11:44:30.122Z,13.27
2017-12-16T11:46:57.715Z,11.97
2017-12-16T11:49:25.256Z,12.47
2017-12-16T11:51:52.789Z,14.20
2017-12-16T11:54:21.141Z,14.52
2017-12-16T11:56:48.713Z,15.17
2017-12-16T11:59:16.437Z,13.75
2017-12-16T12:01:44.007Z,14.70
2017-12-16T12:04:11.539Z,14.20
2017-12-16T12:06:39.495Z,16.70
2017-12-16T12:09:07.083Z,13.67
2017-12-16T12:11:34.632Z,12.87
2017-12-16T12:14:02.177Z,12.13
2017-12-16T12:16:29.776Z,11.70
2017-12-16T12:18:57.313Z,13.20
2017-12-16T12:21:24.887Z,11.40
2017-12-16T12:23:52.447Z,12.48
2017-12-16T12:26:20.004Z,11.80
2017-12-16T12:28:47.570Z,13.40
2017-12-16T12:31:16.468Z,12.70
2017-12-16T12:33:44.007Z,12.33
2017-12-16T12:36:11.571Z,13.60
2017-12-16T12:38:39.202Z,13.40
2017-12-16T12:41:06.756Z,12.40
2017-12-16T12:43:34.308Z,11.35
2017-12-16T12:46:01.883Z,11.30
2017-12-16T12:48:29.436Z,13.47
2017-12-16T12:50:56.976Z,12.10
2017-12-16T12:53:25.307Z,12.70
2017-12-16T12:55:52.840Z,12.83
2017-12-16T12:58:20.386Z,12.57
2017-12-16T13:00:47.991Z,12.27
2017-12-16T13:03:16.507Z,11.36
2017-12-16T13:05:44.804Z,11.73
2017-12-16T13:08:12.502Z,11.07
2017-12-16T13:10:40.088Z,11.17
2017-12-16T13:13:07.686Z,10.00
2017-12-16T13:15:35.245Z,11.63
2017-12-16T13:18:02.803Z,11.77
2017-12-16T13:20:30.344Z,11.20
2017-12-16T13:22:58.707Z,11.13
2017-12-16T13:25:26.255Z,10.77
2017-12-16T13:27:53.787Z,11.03
2017-12-16T13:30:21.364Z,11.70
2017-12-16T13:32:48.907Z,10.50
2017-12-16T13:35:16.531Z,11.48
2017-12-16T13:37:44.104Z,10.90
2017-12-16T13:40:12.573Z,11.23
2017-12-16T13:42:40.108Z,11.70
2017-12-16T13:45:08.463Z,12.23
2017-12-16T13:47:36.004Z,13.33
2017-12-16T13:50:03.581Z,13.33
2017-12-16T13:52:31.162Z,14.83
2017-12-16T13:54:59.474Z,15.53
2017-12-16T13:57:28.960Z,14.93
2017-12-16T13:59:56.537Z,15.00
2017-12-16T14:02:24.077Z,15.10
2017-12-16T14:04:51.678Z,15.05
2017-12-16T14:07:19.327Z,14.57
2017-12-16T14:09:48.428Z,14.03
2017-12-16T14:12:16.427Z,14.77
2017-12-16T14:14:44.011Z,13.77
2017-12-16T14:17:11.552Z,16.25
2017-12-16T14:19:39.911Z,15.90
2017-12-16T14:22:07.479Z,11.27
2017-12-16T14:24:35.780Z,11.87
2017-12-16T14:27:04.092Z,10.73
2017-12-16T14:29:31.683Z,10.63
2017-12-16T14:31:59.216Z,12.07
2017-12-16T14:34:26.761Z,11.10
2017-12-16T14:36:54.339Z,12.00
2017-12-16T14:39:21.896Z,15.00
2017-12-16T14:41:49.483Z,14.63
2017-12-16T14:44:17.126Z,15.53
2017-12-16T14:46:44.672Z,17.20
2017-12-16T14:49:12.250Z,16.63
2017-12-16T14:51:39.851Z,18.30
2017-12-16T14:54:08.157Z,19.00
2017-12-16T14:56:36.349Z,19.67
2017-12-16T14:59:03.961Z,20.70
2017-12-16T15:01:32.269Z,19.57
2017-12-16T15:03:59.924Z,21.50
2017-12-16T15:06:27.553Z,22.50
2017-12-16T15:08:55.133Z,23.00
2017-12-16T15:11:22.771Z,20.80
2017-12-16T15:13:51.126Z,22.30
2017-12-16T15:16:19.267Z,22.10
2017-12-16T15:18:46.801Z,21.43
2017-12-16T15:21:15.609Z,20.17
2017-12-16T15:23:43.181Z,20.37
2017-12-16T15:26:11.475Z,21.90
2017-12-16T15:28:39.974Z,21.50
2017-12-16T15:31:07.543Z,21.90
2017-12-16T15:33:35.221Z,35.27
2017-12-16T15:36:02.856Z,24.50
2017-12-16T15:38:30.473Z,24.90
2017-12-16T15:40:58.200Z,23.07
2017-12-16T15:43:26.527Z,24.20
2017-12-16T15:45:54.126Z,22.73
2017-12-16T15:48:22.425Z,21.60
2017-12-16T15:50:49.992Z,23.07
2017-12-16T15:53:17.529Z,23.08
2017-12-16T15:55:45.870Z,24.40
2017-12-16T15:58:24.517Z,23.00
2017-12-16T16:05:48.944Z,21.47
2017-12-16T16:08:17.391Z,24.33
2017-12-16T16:10:44.942Z,23.97
2017-12-16T16:13:13.081Z,23.83
2017-12-16T16:15:40.727Z,23.33
2017-12-16T16:18:08.305Z,22.37
2017-12-16T16:20:35.883Z,23.53
2017-12-16T16:23:03.423Z,23.95
2017-12-16T16:25:31.009Z,26.10
2017-12-16T16:27:58.625Z,25.95
2017-12-16T16:30:26.192Z,24.27
2017-12-16T16:32:53.778Z,26.30
2017-12-16T16:35:21.388Z,26.73
2017-12-16T16:37:49.735Z,25.27
2017-12-16T16:40:17.524Z,26.77
2017-12-16T16:42:45.180Z,27.73
2017-12-16T16:45:14.443Z,28.03
2017-12-16T16:47:42.025Z,27.93
2017-12-16T16:50:09.600Z,28.17
2017-12-16T16:52:37.214Z,28.10
2017-12-16T16:55:04.875Z,30.58
2017-12-16T16:57:33.057Z,29.97
2017-12-16T17:00:00.660Z,32.03
2017-12-16T17:02:29.015Z,29.10
2017-12-16T17:04:56.612Z,29.53
2017-12-16T17:07:24.160Z,29.33
2017-12-16T17:09:52.460Z,29.30
2017-12-16T17:12:20.071Z,30.02
2017-12-16T17:14:47.938Z,32.00
2017-12-16T17:17:17.686Z,29.16
2017-12-16T17:19:45.302Z,27.37
2017-12-16T17:22:14.936Z,25.10
2017-12-16T17:24:43.273Z,25.35
2017-12-16T17:27:10.922Z,25.73
2017-12-16T17:29:38.450Z,23.95
2017-12-16T17:32:05.996Z,22.63
2017-12-16T17:34:34.382Z,23.98
2017-12-16T17:37:02.481Z,22.97
2017-12-16T17:39:30.020Z,26.30
2017-12-16T17:41:57.596Z,25.52
2017-12-16T17:44:25.219Z,23.97
2017-12-16T17:46:53.518Z,26.47
2017-12-16T17:49:21.154Z,31.02
2017-12-16T17:51:49.468Z,29.10
2017-12-16T17:54:17.053Z,30.70
2017-12-16T17:56:44.662Z,27.10
2017-12-16T17:59:14.085Z,27.13
2017-12-16T18:01:42.917Z,29.47
2017-12-16T18:04:10.555Z,31.60
2017-12-16T18:06:38.939Z,29.20
2017-12-16T18:09:20.565Z,26.65
2017-12-16T18:11:48.923Z,30.30
2017-12-16T18:14:16.551Z,26.67
2017-12-16T18:16:44.334Z,24.90
2017-12-16T18:19:11.919Z,26.27
2017-12-16T18:21:39.503Z,25.73
2017-12-16T18:24:07.257Z,25.23
2017-12-16T18:26:34.861Z,25.27
2017-12-16T18:29:02.442Z,26.87
2017-12-16T18:31:30.110Z,26.87
2017-12-16T18:33:57.707Z,27.50
2017-12-16T18:36:26.059Z,29.40
2017-12-16T18:38:53.627Z,29.13
2017-12-16T18:41:21.163Z,26.90
2017-12-16T18:43:48.743Z,27.67
2017-12-16T18:46:16.606Z,28.27
2017-12-16T18:48:44.949Z,24.70
2017-12-16T18:51:12.475Z,27.67
2017-12-16T18:53:40.149Z,28.90
2017-12-16T18:56:07.675Z,27.33
2017-12-16T18:58:35.223Z,28.07
2017-12-16T19:01:03.543Z,26.93
2017-12-16T19:03:31.088Z,29.10
2017-12-16T19:05:58.615Z,28.67
2017-12-16T19:08:26.996Z,29.60
2017-12-16T19:10:54.578Z,31.40
2017-12-16T19:13:22.161Z,29.50
2017-12-16T19:15:51.055Z,30.30
2017-12-16T19:18:19.238Z,32.08
2017-12-16T19:20:46.849Z,36.43
2017-12-16T19:23:16.491Z,35.20
2017-12-16T19:25:44.103Z,38.90
2017-12-16T19:28:11.723Z,39.73
2017-12-16T19:30:39.347Z,40.57
2017-12-16T19:33:07.986Z,38.60
2017-12-16T19:35:35.587Z,39.55
2017-12-16T19:38:03.996Z,35.90
2017-12-16T19:40:32.750Z,40.15
2017-12-16T19:43:01.095Z,36.50
2017-12-16T19:45:30.232Z,36.90
2017-12-16T19:47:57.768Z,40.13
2017-12-16T19:50:26.295Z,37.63
2017-12-16T19:52:53.885Z,39.50
2017-12-16T19:55:21.490Z,38.33
2017-12-16T19:57:49.135Z,35.50
2017-12-16T20:00:17.587Z,36.42
2017-12-16T20:02:45.320Z,35.20
2017-12-16T20:05:13.882Z,35.40
2017-12-16T20:07:41.513Z,34.27
2017-12-16T20:10:09.117Z,36.80
2017-12-16T20:12:36.720Z,35.10
2017-12-16T20:15:04.335Z,34.23
2017-12-16T20:17:31.939Z,35.97
2017-12-16T20:19:59.527Z,37.10
2017-12-16T20:22:27.170Z,34.77
2017-12-16T20:24:54.770Z,32.83
2017-12-16T20:27:22.351Z,34.70
2017-12-16T20:29:49.955Z,34.97
2017-12-16T20:32:17.609Z,33.00
2017-12-16T20:34:45.159Z,30.73
2017-12-16T20:37:12.784Z,31.30
2017-12-16T20:39:40.386Z,29.97
2017-12-16T20:42:08.779Z,32.70
2017-12-16T20:44:37.177Z,30.80
2017-12-16T20:47:04.775Z,30.85
2017-12-16T20:49:32.437Z,32.50
2017-12-16T20:52:00.097Z,32.60
2017-12-16T20:54:27.787Z,35.80
2017-12-16T20:56:55.381Z,31.67
2017-12-16T20:59:23.011Z,31.07
2017-12-16T21:01:51.385Z,32.37
2017-12-16T21:04:18.995Z,34.60
2017-12-16T21:06:46.638Z,34.38
2017-12-16T21:09:26.020Z,33.00
2017-12-16T21:14:53.825Z,31.73
2017-12-16T21:17:21.484Z,33.83
2017-12-16T21:19:49.083Z,34.80
2017-12-16T21:22:17.340Z,32.90
2017-12-16T21:24:45.690Z,32.60
2017-12-16T21:27:25.752Z,35.83
2017-12-16T21:32:16.475Z,31.17
2017-12-16T21:34:44.104Z,33.23
2017-12-16T21:37:11.708Z,34.30
2017-12-16T21:39:39.315Z,33.70
2017-12-16T21:42:06.949Z,35.30
2017-12-16T21:44:34.621Z,32.42
2017-12-16T21:47:02.220Z,34.60
2017-12-16T21:49:29.855Z,33.60
2017-12-16T21:51:57.484Z,33.57
2017-12-16T21:54:25.074Z,32.73
2017-12-16T21:56:52.691Z,31.90
2017-12-16T21:59:20.271Z,31.15
2017-12-16T22:01:47.855Z,31.20
2017-12-16T22:04:15.584Z,28.90
2017-12-16T22:06:43.163Z,29.63
2017-12-16T22:09:11.515Z,30.93
2017-12-16T22:11:39.386Z,31.43
2017-12-16T22:14:06.984Z,26.17
2017-12-16T22:16:34.563Z,29.43
2017-12-16T22:19:02.192Z,26.30
2017-12-16T22:21:29.785Z,26.97
2017-12-16T22:23:57.733Z,29.10
2017-12-16T22:26:25.375Z,29.50
2017-12-16T22:28:52.985Z,29.80
2017-12-16T22:31:21.361Z,29.10
2017-12-16T22:33:49.749Z,30.23
2017-12-16T22:36:18.100Z,26.63
2017-12-16T22:38:46.460Z,28.13
2017-12-16T22:41:15.515Z,30.70
2017-12-16T22:53:18.167Z,27.60
2017-12-16T22:55:46.589Z,26.83
2017-12-16T22:58:16.310Z,25.95
2017-12-16T23:00:44.831Z,28.30
2017-12-16T23:03:12.405Z,27.42
2017-12-16T23:05:39.986Z,26.07
2017-12-16T23:08:07.745Z,25.30
2017-12-16T23:10:35.357Z,25.77
2017-12-16T23:13:03.049Z,25.10
2017-12-16T23:15:30.962Z,25.45
2017-12-16T23:17:58.498Z,25.80
2017-12-16T23:20:26.069Z,25.33
2017-12-16T23:22:54.760Z,26.37
2017-12-16T23:25:23.031Z,26.33
2017-12-16T23:27:50.705Z,23.77
2017-12-16T23:30:18.426Z,24.67
2017-12-16T23:32:46.037Z,23.23
2017-12-16T23:35:14.484Z,25.30
2017-12-16T23:43:42.130Z,23.13
2017-12-16T23:46:09.775Z,24.43
2017-12-16T23:48:37.343Z,25.27
2017-12-16T23:51:05.879Z,27.98
2017-12-16T23:53:33.558Z,30.00
2017-12-16T23:56:01.130Z,29.67
2017-12-16T23:58:28.793Z,29.43
